Time;durP1;ratioP1;P1;durP2;ratioP2;P2;SDS_P1;SDS_P2;PMS_P1;PMS_P2;Temp;Humidity;BMP_temperature;BMP_pressure;BME280_temperature;BME280_humidity;BME280_pressure;Samples;Min_cycle;Max_cycle;Signal;HPM_P1;HPM_P2
2023/08/16 00:02:13;;;;;;;5.38;3.28;;;21.60;84.70;;;;;;5012415;28;20429;-64
2023/08/16 00:04:39;;;;;;;4.03;3.63;;;21.60;84.80;;;;;;5014526;28;20042;-64
2023/08/16 00:07:04;;;;;;;4.63;3.30;;;21.60;84.80;;;;;;5011679;28;20457;-64
2023/08/16 00:09:30;;;;;;;4.93;3.75;;;21.60;84.70;;;;;;5014600;28;20501;-65
2023/08/16 00:11:56;;;;;;;4.00;3.17;;;21.50;84.80;;;;;;5009581;28;20076;-64
2023/08/16 00:14:22;;;;;;;3.83;3.40;;;21.50;84.70;;;;;;5014756;28;20107;-63
2023/08/16 00:16:48;;;;;;;4.25;3.25;;;21.50;84.80;;;;;;5013827;28;20445;-64
2023/08/16 00:19:14;;;;;;;5.03;3.28;;;21.50;85.00;;;;;;5014501;28;20062;-65
2023/08/16 00:21:40;;;;;;;3.60;3.30;;;21.50;85.10;;;;;;5009334;28;20037;-64
2023/08/16 00:24:06;;;;;;;3.67;3.38;;;21.50;85.00;;;;;;5011657;28;20042;-64
2023/08/16 00:26:32;;;;;;;4.47;3.28;;;21.50;84.90;;;;;;5011869;28;20121;-64
2023/08/16 00:28:58;;;;;;;8.05;3.30;;;21.50;85.20;;;;;;5013348;28;20042;-64
2023/08/16 00:31:23;;;;;;;4.25;3.15;;;21.50;84.90;;;;;;5012784;28;20548;-64
2023/08/16 00:33:49;;;;;;;4.18;3.22;;;21.50;85.00;;;;;;5013026;28;20068;-64
2023/08/16 00:36:15;;;;;;;5.22;3.55;;;21.50;84.80;;;;;;5011871;28;20442;-64
2023/08/16 00:38:44;;;;;;;7.05;3.90;;;21.40;84.60;;;;;;5011145;28;20247;-64
2023/08/16 00:41:13;;;;;;;4.03;3.42;;;21.50;84.70;;;;;;5013480;28;20029;-64
2023/08/16 00:43:39;;;;;;;5.80;3.38;;;21.40;84.80;;;;;;5012380;28;20095;-64
2023/08/16 00:46:12;;;;;;;5.45;3.30;;;21.40;84.80;;;;;;5013241;28;20505;-65
2023/08/16 00:48:41;;;;;;;4.60;3.10;;;21.30;84.80;;;;;;5012850;28;20156;-65
2023/08/16 00:51:09;;;;;;;5.95;3.42;;;21.30;84.90;;;;;;5011433;28;20047;-62
2023/08/16 00:53:35;;;;;;;4.05;3.03;;;21.30;85.20;;;;;;5017154;28;20042;-64
2023/08/16 00:56:03;;;;;;;3.45;3.17;;;21.30;85.20;;;;;;5018317;28;20033;-64
2023/08/16 00:58:28;;;;;;;4.03;3.47;;;21.30;85.20;;;;;;5015874;28;20476;-65
2023/08/16 01:00:54;;;;;;;5.53;3.65;;;21.30;85.10;;;;;;5012282;28;20026;-64
2023/08/16 01:03:20;;;;;;;3.97;3.58;;;21.30;85.10;;;;;;5016812;28;20497;-65
2023/08/16 01:05:45;;;;;;;7.32;3.80;;;21.30;85.10;;;;;;5015851;28;20037;-65
2023/08/16 01:08:11;;;;;;;5.72;3.88;;;21.20;85.00;;;;;;5016796;28;20502;-64
2023/08/16 01:11:22;;;;;;;4.25;3.40;;;21.20;85.00;;;;;;5013864;28;20129;-63
2023/08/16 01:14:03;;;;;;;7.00;3.70;;;21.20;85.70;;;;;;4924331;29;20042;-65
2023/08/16 01:16:30;;;;;;;7.53;4.10;;;21.10;85.50;;;;;;4922944;29;20071;-64
2023/08/16 01:18:57;;;;;;;4.57;4.18;;;21.10;85.30;;;;;;4979770;28;20037;-64
2023/08/16 01:21:24;;;;;;;3.97;3.58;;;21.00;85.30;;;;;;5017530;28;20471;-64
2023/08/16 01:24:06;;;;;;;4.10;3.65;;;21.00;85.50;;;;;;4984313;28;20132;-64
2023/08/16 01:26:36;;;;;;;4.68;3.70;;;21.00;86.00;;;;;;5016495;28;20540;-64
2023/08/16 01:29:04;;;;;;;3.70;3.40;;;20.90;86.10;;;;;;5015994;28;20042;-65
2023/08/16 01:31:31;;;;;;;6.95;3.13;;;21.00;86.20;;;;;;5017207;28;20038;-65
2023/08/16 01:33:59;;;;;;;5.20;3.30;;;21.00;86.20;;;;;;5014936;28;20042;-64
2023/08/16 01:36:25;;;;;;;5.25;3.47;;;21.00;86.00;;;;;;5015825;28;20032;-64
2023/08/16 01:38:50;;;;;;;3.45;3.15;;;21.00;85.90;;;;;;5014148;28;20042;-64
2023/08/16 01:41:31;;;;;;;4.30;3.42;;;21.00;85.90;;;;;;5016469;28;20172;-64
2023/08/16 01:43:57;;;;;;;3.95;3.55;;;21.00;85.90;;;;;;5015458;28;20042;-64
2023/08/16 01:46:24;;;;;;;3.95;3.50;;;21.00;85.60;;;;;;5015159;28;20037;-64
2023/08/16 01:48:51;;;;;;;4.25;3.88;;;21.10;85.40;;;;;;5016260;28;20129;-64
2023/08/16 01:51:17;;;;;;;4.43;3.33;;;21.10;85.20;;;;;;5015637;28;20033;-64
2023/08/16 01:53:49;;;;;;;3.78;3.45;;;21.10;85.00;;;;;;5015991;28;20033;-65
2023/08/16 01:56:14;;;;;;;3.80;3.30;;;21.00;84.80;;;;;;5014457;28;20044;-64
2023/08/16 01:58:40;;;;;;;4.60;4.07;;;21.00;84.80;;;;;;5015056;28;20030;-64
2023/08/16 02:01:05;;;;;;;5.82;3.85;;;21.00;84.90;;;;;;5016466;28;20041;-65
2023/08/16 02:03:32;;;;;;;3.45;3.05;;;20.90;85.00;;;;;;5014276;28;20441;-64
2023/08/16 02:05:57;;;;;;;3.63;2.95;;;20.90;85.10;;;;;;5015311;28;20133;-64
2023/08/16 02:08:23;;;;;;;4.38;3.13;;;20.90;85.40;;;;;;5016591;28;20159;-64
2023/08/16 02:10:48;;;;;;;4.15;3.28;;;20.90;85.50;;;;;;5010979;28;20041;-65
2023/08/16 02:13:14;;;;;;;3.78;3.20;;;20.90;85.30;;;;;;5016203;28;20036;-64
2023/08/16 02:15:40;;;;;;;3.58;3.22;;;20.90;85.20;;;;;;5017015;28;20144;-65
2023/08/16 02:18:10;;;;;;;3.25;3.05;;;20.90;85.20;;;;;;5013013;28;20079;-65
2023/08/16 02:20:38;;;;;;;3.67;3.20;;;20.90;85.30;;;;;;5015655;28;20081;-65
2023/08/16 02:23:04;;;;;;;3.70;3.20;;;20.90;85.50;;;;;;5016218;28;20170;-65
2023/08/16 02:25:30;;;;;;;4.82;3.05;;;20.90;85.40;;;;;;5015170;28;20030;-64
2023/08/16 02:27:55;;;;;;;8.00;3.00;;;20.90;85.40;;;;;;5015434;28;20037;-64
2023/08/16 02:30:21;;;;;;;5.20;3.10;;;20.90;85.50;;;;;;5015451;28;20670;-64
2023/08/16 02:32:46;;;;;;;3.17;2.67;;;20.90;85.70;;;;;;5015068;28;20033;-65
2023/08/16 02:35:12;;;;;;;3.00;2.80;;;20.90;85.50;;;;;;5016034;28;20113;-64
2023/08/16 02:37:38;;;;;;;3.60;3.00;;;20.90;85.30;;;;;;5014639;28;20547;-65
2023/08/16 02:40:04;;;;;;;2.70;2.50;;;20.80;85.00;;;;;;5013208;28;20022;-65
2023/08/16 02:42:29;;;;;;;4.32;3.05;;;20.80;84.90;;;;;;5012121;28;20049;-64
2023/08/16 02:44:55;;;;;;;3.20;2.90;;;20.80;85.10;;;;;;5013284;28;20392;-65
2023/08/16 02:47:20;;;;;;;3.63;3.33;;;20.80;85.10;;;;;;5016056;28;20549;-64
2023/08/16 02:49:46;;;;;;;5.30;3.28;;;20.70;85.20;;;;;;5016132;28;20458;-63
2023/08/16 02:52:12;;;;;;;6.05;3.60;;;20.70;85.30;;;;;;5016791;28;20346;-64
2023/08/16 02:54:38;;;;;;;4.47;3.45;;;20.70;85.50;;;;;;5012220;28;20132;-64
2023/08/16 02:57:03;;;;;;;5.65;3.67;;;20.60;85.60;;;;;;5014873;28;20068;-64
2023/08/16 02:59:39;;;;;;;4.38;3.67;;;20.60;85.90;;;;;;5014017;28;20038;-64
2023/08/16 03:02:05;;;;;;;6.43;3.78;;;20.50;86.50;;;;;;5014882;28;20041;-64
2023/08/16 03:04:30;;;;;;;4.43;3.97;;;20.50;86.00;;;;;;5014481;28;20038;-64
2023/08/16 03:06:56;;;;;;;4.35;3.92;;;20.50;85.90;;;;;;5014916;28;20048;-64
2023/08/16 03:09:22;;;;;;;3.50;2.95;;;20.50;85.80;;;;;;5014828;28;20034;-64
2023/08/16 03:11:49;;;;;;;3.72;3.42;;;20.50;85.90;;;;;;5011643;28;20131;-63
2023/08/16 03:14:15;;;;;;;4.13;3.30;;;20.40;85.90;;;;;;5013757;28;20042;-64
2023/08/16 03:16:40;;;;;;;4.05;3.70;;;20.40;86.10;;;;;;5013369;28;20596;-65
2023/08/16 03:19:06;;;;;;;4.28;3.40;;;20.40;86.20;;;;;;5013919;28;20053;-64
2023/08/16 03:21:34;;;;;;;4.90;3.58;;;20.40;86.20;;;;;;5015163;28;20568;-64
2023/08/16 03:24:00;;;;;;;4.65;4.05;;;20.40;86.10;;;;;;5012984;28;20038;-64
2023/08/16 03:26:25;;;;;;;5.03;3.35;;;20.40;86.20;;;;;;5010301;28;20040;-64
2023/08/16 03:28:51;;;;;;;4.65;3.65;;;20.40;86.30;;;;;;5014979;28;20072;-64
2023/08/16 03:31:17;;;;;;;4.55;3.60;;;20.50;86.40;;;;;;5014516;28;20517;-65
2023/08/16 03:33:43;;;;;;;5.07;3.90;;;20.50;86.10;;;;;;5012660;28;20441;-64
2023/08/16 03:36:08;;;;;;;4.38;3.85;;;20.50;85.80;;;;;;5015181;28;20040;-64
2023/08/16 03:38:34;;;;;;;3.88;3.55;;;20.50;85.60;;;;;;5013243;28;20042;-64
2023/08/16 03:41:00;;;;;;;4.28;3.88;;;20.40;85.80;;;;;;5013886;28;20069;-64
2023/08/16 03:43:25;;;;;;;4.07;3.70;;;20.40;85.80;;;;;;5014108;28;20041;-64
2023/08/16 03:45:51;;;;;;;4.57;4.10;;;20.40;86.00;;;;;;5014101;28;20048;-64
2023/08/16 03:48:16;;;;;;;6.22;4.35;;;20.40;85.70;;;;;;5013677;28;20111;-65
2023/08/16 03:50:42;;;;;;;6.43;4.32;;;20.40;85.70;;;;;;5012921;28;20409;-64
2023/08/16 03:53:08;;;;;;;5.20;4.70;;;20.30;85.60;;;;;;5014373;28;20483;-65
2023/08/16 03:55:33;;;;;;;4.80;3.92;;;20.30;85.80;;;;;;5012155;28;20057;-64
2023/08/16 03:57:59;;;;;;;4.55;3.72;;;20.20;85.90;;;;;;5014231;28;20037;-64
2023/08/16 04:00:24;;;;;;;4.53;3.95;;;20.20;86.20;;;;;;5014363;28;20037;-64
2023/08/16 04:02:51;;;;;;;4.55;3.78;;;20.20;86.50;;;;;;5013484;28;20042;-64
2023/08/16 04:05:21;;;;;;;6.25;3.80;;;20.10;86.60;;;;;;5014427;28;20037;-65
2023/08/16 04:07:47;;;;;;;3.92;3.63;;;20.20;86.70;;;;;;5011879;28;20049;-64
2023/08/16 04:10:12;;;;;;;4.75;3.70;;;20.20;86.40;;;;;;5012858;28;20034;-64
2023/08/16 04:12:38;;;;;;;8.55;5.20;;;20.20;86.40;;;;;;5010759;28;20064;-65
2023/08/16 04:15:04;;;;;;;8.30;5.72;;;20.20;86.30;;;;;;5014832;28;20033;-64
2023/08/16 04:17:30;;;;;;;12.27;7.00;;;20.20;86.20;;;;;;5012528;28;20033;-65
2023/08/16 04:19:55;;;;;;;11.23;6.85;;;20.20;86.20;;;;;;5013605;28;20436;-65
2023/08/16 04:22:21;;;;;;;10.20;5.90;;;20.10;86.10;;;;;;5013446;28;20041;-64
2023/08/16 04:24:47;;;;;;;10.32;5.97;;;20.10;86.30;;;;;;5010763;28;20483;-65
2023/08/16 04:27:12;;;;;;;7.95;5.38;;;20.00;86.60;;;;;;5012127;28;20034;-64
2023/08/16 04:29:38;;;;;;;6.38;4.65;;;20.00;86.80;;;;;;5013910;28;20151;-64
2023/08/16 04:32:03;;;;;;;6.13;4.85;;;19.90;86.90;;;;;;5013816;28;20121;-64
2023/08/16 04:34:29;;;;;;;5.20;4.70;;;19.90;87.10;;;;;;5012908;28;20075;-64
2023/08/16 04:36:54;;;;;;;7.15;4.18;;;19.90;87.30;;;;;;5012852;28;20033;-64
2023/08/16 04:39:20;;;;;;;5.55;3.88;;;19.90;87.40;;;;;;5011707;28;20041;-64
2023/08/16 04:41:46;;;;;;;7.20;4.35;;;19.90;87.40;;;;;;5012019;28;20033;-64
2023/08/16 04:44:11;;;;;;;4.20;3.85;;;20.00;87.40;;;;;;4996393;28;20037;-65
2023/08/16 04:46:37;;;;;;;7.13;4.30;;;19.90;87.30;;;;;;5012280;28;20133;-64
2023/08/16 04:49:03;;;;;;;7.35;6.60;;;19.90;87.10;;;;;;5011950;28;20536;-65
2023/08/16 04:51:28;;;;;;;8.93;6.93;;;20.00;86.90;;;;;;5013608;28;20042;-64
2023/08/16 04:53:54;;;;;;;6.20;5.13;;;19.90;86.80;;;;;;5013633;28;20444;-64
2023/08/16 04:56:19;;;;;;;5.50;3.92;;;19.90;87.10;;;;;;5012731;28;20037;-65
2023/08/16 04:58:45;;;;;;;5.57;4.28;;;19.90;87.10;;;;;;5012511;28;20055;-65
2023/08/16 05:01:10;;;;;;;6.30;3.78;;;19.90;87.30;;;;;;5008527;28;20049;-65
2023/08/16 05:03:36;;;;;;;4.57;3.92;;;19.90;87.30;;;;;;5013447;28;20486;-65
2023/08/16 05:06:03;;;;;;;4.57;4.18;;;19.90;87.10;;;;;;5012621;28;20108;-64
2023/08/16 05:08:30;;;;;;;4.90;4.50;;;20.00;87.20;;;;;;5012810;28;20485;-64
2023/08/16 05:10:56;;;;;;;5.10;4.43;;;20.00;87.20;;;;;;5010095;28;20056;-64
2023/08/16 05:13:22;;;;;;;4.60;4.20;;;20.00;87.30;;;;;;5011977;28;20030;-64
2023/08/16 05:15:48;;;;;;;3.63;3.33;;;20.00;87.40;;;;;;5011759;28;20076;-65
2023/08/16 05:18:14;;;;;;;4.88;3.67;;;20.00;87.40;;;;;;4995197;28;20034;-64
2023/08/16 05:20:39;;;;;;;3.65;3.35;;;20.00;87.40;;;;;;5012761;28;20038;-64
2023/08/16 05:23:05;;;;;;;3.60;3.25;;;20.00;87.50;;;;;;5013546;28;20338;-64
2023/08/16 05:25:30;;;;;;;3.25;3.05;;;20.00;87.60;;;;;;5012899;28;20034;-65
2023/08/16 05:27:58;;;;;;;2.97;2.80;;;20.10;87.80;;;;;;5011030;28;20087;-64
2023/08/16 05:30:25;;;;;;;3.20;3.00;;;20.10;88.00;;;;;;5012893;28;20026;-65
2023/08/16 05:32:53;;;;;;;3.42;3.15;;;20.20;88.10;;;;;;5010801;28;20133;-65
2023/08/16 05:35:18;;;;;;;3.80;3.40;;;20.20;88.30;;;;;;5013083;28;20034;-65
2023/08/16 05:37:44;;;;;;;4.40;3.97;;;20.20;88.40;;;;;;5013823;28;20037;-65
2023/08/16 05:40:10;;;;;;;8.00;4.93;;;20.30;88.60;;;;;;5015402;28;20067;-64
2023/08/16 05:42:36;;;;;;;4.78;4.38;;;20.30;88.80;;;;;;5015778;28;20529;-64
2023/08/16 05:45:01;;;;;;;7.38;4.53;;;20.40;89.00;;;;;;5015569;28;20042;-65
2023/08/16 05:47:27;;;;;;;5.57;4.50;;;20.40;89.00;;;;;;5016989;28;20484;-64
2023/08/16 05:49:52;;;;;;;5.93;4.43;;;20.40;89.10;;;;;;5016424;28;20033;-64
2023/08/16 05:52:18;;;;;;;4.82;4.38;;;20.50;89.30;;;;;;5016099;28;20569;-64
2023/08/16 05:54:44;;;;;;;4.82;4.43;;;20.50;89.50;;;;;;5014980;28;20438;-63
2023/08/16 05:57:09;;;;;;;7.47;5.07;;;20.50;89.70;;;;;;5016516;28;20137;-64
2023/08/16 05:59:35;;;;;;;4.90;4.50;;;20.60;89.90;;;;;;5015302;28;20524;-64
2023/08/16 06:02:00;;;;;;;7.70;4.63;;;20.70;90.00;;;;;;5016677;28;20421;-64
2023/08/16 06:04:26;;;;;;;5.07;4.43;;;20.70;89.90;;;;;;5016005;28;20034;-64
2023/08/16 06:06:51;;;;;;;7.22;5.32;;;20.70;90.00;;;;;;5015530;28;20046;-64
2023/08/16 06:09:17;;;;;;;6.43;5.78;;;20.80;90.10;;;;;;5015797;28;20120;-64
2023/08/16 06:11:42;;;;;;;7.22;6.53;;;20.80;90.10;;;;;;5013936;28;20746;-64
2023/08/16 06:14:08;;;;;;;8.65;6.63;;;20.80;90.20;;;;;;5014810;28;20062;-64
2023/08/16 06:16:34;;;;;;;6.35;5.60;;;20.80;90.20;;;;;;5017804;28;20068;-64
2023/08/16 06:19:00;;;;;;;10.55;5.55;;;20.70;90.20;;;;;;5018119;28;20034;-65
2023/08/16 06:21:26;;;;;;;6.35;5.75;;;20.70;90.10;;;;;;5018421;28;20034;-65
2023/08/16 06:23:53;;;;;;;6.65;5.85;;;20.70;90.20;;;;;;5017831;28;20558;-65
2023/08/16 06:26:18;;;;;;;11.38;7.40;;;20.70;90.30;;;;;;5015475;28;20359;-64
2023/08/16 06:28:46;;;;;;;11.98;6.90;;;20.70;90.30;;;;;;5016563;28;20034;-63
2023/08/16 06:31:11;;;;;;;9.65;7.72;;;20.60;90.30;;;;;;5016291;28;20508;-63
2023/08/16 06:33:37;;;;;;;8.90;7.47;;;20.60;90.50;;;;;;5015447;28;20037;-65
2023/08/16 06:36:03;;;;;;;9.88;8.98;;;20.60;90.60;;;;;;5014494;28;20125;-64
2023/08/16 06:38:28;;;;;;;12.57;11.15;;;20.70;90.70;;;;;;5015225;28;20137;-64
2023/08/16 06:40:55;;;;;;;13.82;11.98;;;20.70;90.80;;;;;;5014640;28;20108;-64
2023/08/16 06:43:20;;;;;;;12.27;11.02;;;20.70;91.00;;;;;;5018094;28;20038;-64
2023/08/16 06:45:46;;;;;;;12.90;11.43;;;20.70;91.10;;;;;;5018203;28;20037;-64
2023/08/16 06:48:12;;;;;;;15.13;12.25;;;20.80;91.20;;;;;;5017110;28;20029;-63
2023/08/16 06:50:38;;;;;;;13.32;11.82;;;20.90;91.20;;;;;;5013533;28;20676;-64
2023/08/16 06:53:04;;;;;;;12.52;11.23;;;20.90;91.20;;;;;;5017744;28;20045;-63
2023/08/16 06:55:29;;;;;;;12.88;11.57;;;20.90;91.30;;;;;;5018019;28;20033;-64
2023/08/16 06:57:55;;;;;;;12.18;10.98;;;20.90;91.40;;;;;;5013767;28;20056;-64
2023/08/16 07:00:20;;;;;;;12.75;11.43;;;21.00;91.50;;;;;;5015542;28;20041;-65
2023/08/16 07:02:46;;;;;;;13.85;12.45;;;21.00;91.50;;;;;;5012254;28;20037;-64
2023/08/16 07:05:12;;;;;;;14.25;11.38;;;21.10;91.50;;;;;;5015082;28;20036;-64
2023/08/16 07:07:38;;;;;;;14.35;12.85;;;21.20;91.40;;;;;;5011229;28;20121;-64
2023/08/16 07:10:04;;;;;;;17.08;12.45;;;21.20;91.50;;;;;;5012767;28;20026;-64
2023/08/16 07:12:30;;;;;;;16.00;13.30;;;21.30;91.50;;;;;;5008896;28;20120;-64
2023/08/16 07:14:56;;;;;;;14.43;12.93;;;21.40;91.60;;;;;;5014003;28;20450;-64
2023/08/16 07:17:21;;;;;;;13.10;11.80;;;21.50;91.60;;;;;;5012701;28;20033;-64
2023/08/16 07:19:50;;;;;;;13.45;12.05;;;21.60;91.50;;;;;;5012813;28;20498;-63
2023/08/16 07:22:16;;;;;;;14.98;11.98;;;21.70;91.50;;;;;;5015426;28;20041;-63
2023/08/16 07:24:42;;;;;;;12.38;11.13;;;21.80;91.50;;;;;;5012284;28;20485;-63
2023/08/16 07:27:07;;;;;;;12.00;10.38;;;21.90;91.60;;;;;;5013664;28;20034;-63
2023/08/16 07:29:33;;;;;;;10.52;9.63;;;22.00;91.40;;;;;;5015614;28;20050;-64
2023/08/16 07:31:58;;;;;;;11.13;10.00;;;22.10;91.40;;;;;;5012735;28;20433;-65
2023/08/16 07:34:24;;;;;;;10.05;9.13;;;22.20;91.40;;;;;;5013796;28;20538;-63
2023/08/16 07:36:49;;;;;;;11.45;9.93;;;22.30;91.20;;;;;;5014611;28;20383;-64
2023/08/16 07:39:15;;;;;;;10.15;9.15;;;22.40;91.10;;;;;;5013931;28;20049;-64
2023/08/16 07:41:41;;;;;;;11.35;9.10;;;22.50;91.20;;;;;;5014921;28;20045;-64
2023/08/16 07:44:07;;;;;;;10.52;9.40;;;22.60;91.50;;;;;;5015423;28;20687;-64
2023/08/16 07:46:32;;;;;;;10.00;8.75;;;22.70;91.10;;;;;;5014654;28;20501;-63
2023/08/16 07:48:58;;;;;;;9.98;8.55;;;22.80;91.00;;;;;;4996188;28;20092;-64
2023/08/16 07:51:23;;;;;;;9.68;8.65;;;22.90;90.90;;;;;;5013115;28;20417;-65
2023/08/16 07:53:49;;;;;;;10.00;9.00;;;23.00;90.70;;;;;;5015196;28;20452;-64
2023/08/16 07:56:15;;;;;;;10.27;9.15;;;23.10;90.70;;;;;;5013974;28;20427;-64
2023/08/16 07:58:40;;;;;;;10.82;9.73;;;23.20;90.70;;;;;;5012570;28;20053;-64
2023/08/16 08:01:06;;;;;;;9.65;8.65;;;23.20;90.60;;;;;;5012147;28;20605;-65
2023/08/16 08:03:31;;;;;;;9.52;8.63;;;23.40;90.50;;;;;;5011176;28;20033;-64
2023/08/16 08:06:01;;;;;;;11.13;8.65;;;23.40;90.50;;;;;;5013092;28;20300;-64
2023/08/16 08:08:27;;;;;;;9.20;7.90;;;23.50;90.30;;;;;;5012403;28;20456;-63
2023/08/16 08:10:52;;;;;;;10.43;7.55;;;23.60;90.10;;;;;;5005850;28;20035;-64
2023/08/16 08:13:18;;;;;;;10.90;8.18;;;23.70;89.80;;;;;;5003839;28;20037;-64
2023/08/16 08:15:43;;;;;;;9.25;8.15;;;23.80;89.30;;;;;;5015201;28;20120;-65
2023/08/16 08:18:09;;;;;;;8.25;7.43;;;23.80;89.30;;;;;;5014856;28;20045;-64
2023/08/16 08:20:36;;;;;;;10.63;8.10;;;23.80;89.00;;;;;;5011092;28;20098;-64
2023/08/16 08:23:02;;;;;;;7.88;7.07;;;23.90;88.70;;;;;;5014403;28;20030;-64
2023/08/16 08:25:29;;;;;;;9.43;7.88;;;24.00;88.50;;;;;;5014491;28;20409;-64
2023/08/16 08:27:55;;;;;;;11.13;7.80;;;24.10;88.20;;;;;;5014342;28;20609;-64
2023/08/16 08:30:21;;;;;;;8.40;7.50;;;24.10;88.30;;;;;;5014269;28;20113;-64
2023/08/16 08:32:47;;;;;;;10.85;6.90;;;24.20;88.20;;;;;;5016557;28;20418;-64
2023/08/16 08:35:13;;;;;;;9.13;7.07;;;24.30;88.30;;;;;;5017374;28;20061;-64
2023/08/16 08:37:38;;;;;;;9.55;7.65;;;24.40;88.00;;;;;;5016580;28;20033;-64
2023/08/16 08:40:05;;;;;;;7.80;6.72;;;24.40;87.20;;;;;;5016694;28;20037;-64
2023/08/16 08:42:31;;;;;;;6.97;6.25;;;24.50;88.40;;;;;;5016216;28;20427;-64
2023/08/16 08:44:59;;;;;;;5.88;5.28;;;24.60;87.10;;;;;;5017004;28;20512;-64
2023/08/16 08:47:24;;;;;;;6.03;5.45;;;24.70;86.90;;;;;;5013370;28;20685;-64
2023/08/16 08:49:51;;;;;;;7.72;6.38;;;24.80;86.80;;;;;;5016058;28;20132;-64
2023/08/16 08:52:18;;;;;;;6.95;5.55;;;24.90;86.20;;;;;;5014404;28;20038;-63
2023/08/16 08:54:44;;;;;;;7.93;6.00;;;25.00;86.00;;;;;;5013066;28;20119;-64
2023/08/16 08:57:11;;;;;;;5.60;5.03;;;25.00;86.00;;;;;;5014085;28;20038;-64
2023/08/16 08:59:43;;;;;;;5.07;4.57;;;25.10;85.40;;;;;;5014615;28;20448;-64
2023/08/16 09:02:10;;;;;;;5.03;4.60;;;25.20;84.70;;;;;;5012776;28;20034;-64
2023/08/16 09:04:36;;;;;;;6.32;4.38;;;25.30;83.60;;;;;;5014194;28;20064;-64
2023/08/16 09:07:07;;;;;;;5.40;4.90;;;25.40;83.80;;;;;;5013519;28;20026;-64
2023/08/16 09:09:32;;;;;;;5.75;5.07;;;25.50;83.40;;;;;;5012684;28;20041;-64
2023/08/16 09:11:58;;;;;;;7.95;4.93;;;25.60;83.30;;;;;;5009332;28;20065;-64
2023/08/16 09:14:24;;;;;;;6.30;5.70;;;25.60;83.30;;;;;;5017845;28;20445;-64
2023/08/16 09:16:49;;;;;;;6.72;5.70;;;25.70;83.20;;;;;;5018752;28;20090;-64
2023/08/16 09:19:15;;;;;;;6.35;4.82;;;25.80;83.00;;;;;;5019081;28;20037;-63
2023/08/16 09:21:44;;;;;;;6.05;5.30;;;25.80;82.60;;;;;;5014120;28;20064;-64
2023/08/16 09:24:10;;;;;;;6.68;5.28;;;25.90;82.80;;;;;;5016556;28;20124;-64
2023/08/16 09:26:37;;;;;;;6.70;5.10;;;26.00;82.30;;;;;;5016882;28;20120;-64
2023/08/16 09:29:03;;;;;;;4.53;4.13;;;26.10;82.40;;;;;;5018628;28;20331;-64
2023/08/16 09:31:37;;;;;;;5.95;4.57;;;26.10;81.70;;;;;;5017039;28;20061;-64
2023/08/16 09:34:03;;;;;;;5.30;3.53;;;26.20;82.20;;;;;;5016523;28;20045;-65
2023/08/16 09:36:41;;;;;;;4.28;3.88;;;26.30;80.20;;;;;;5018364;28;20046;-64
2023/08/16 09:39:11;;;;;;;6.72;3.63;;;26.40;80.00;;;;;;5015309;28;20045;-64
2023/08/16 09:41:47;;;;;;;5.68;4.07;;;26.50;80.00;;;;;;5017739;28;20422;-64
2023/08/16 09:44:12;;;;;;;4.55;4.07;;;26.60;78.80;;;;;;5016806;28;20455;-64
2023/08/16 09:46:38;;;;;;;4.22;3.58;;;26.60;79.40;;;;;;5017876;28;20113;-64
2023/08/16 09:49:08;;;;;;;4.18;2.97;;;26.80;78.40;;;;;;5016564;28;20165;-65
2023/08/16 09:51:39;;;;;;;3.95;3.22;;;26.80;77.90;;;;;;5017212;28;20100;-65
2023/08/16 09:54:12;;;;;;;4.25;2.97;;;26.90;76.40;;;;;;5016777;28;20120;-64
2023/08/16 09:56:39;;;;;;;3.50;3.15;;;27.00;76.60;;;;;;5014211;28;20398;-64
2023/08/16 09:59:08;;;;;;;3.40;3.10;;;27.10;77.30;;;;;;5016768;28;20042;-64
2023/08/16 10:01:37;;;;;;;5.25;3.78;;;27.20;76.20;;;;;;5017774;28;20069;-64
2023/08/16 10:04:04;;;;;;;4.40;3.00;;;27.40;76.00;;;;;;5016999;28;20108;-64
2023/08/16 10:06:33;;;;;;;3.25;3.00;;;27.40;76.60;;;;;;5016791;28;20030;-65
2023/08/16 10:09:02;;;;;;;4.95;3.53;;;27.50;75.60;;;;;;5017057;28;20455;-65
2023/08/16 10:11:28;;;;;;;3.38;3.13;;;27.60;75.50;;;;;;5014513;28;20064;-64
2023/08/16 10:13:54;;;;;;;3.90;3.10;;;27.70;75.60;;;;;;5016682;28;20521;-64
2023/08/16 10:16:22;;;;;;;5.03;3.15;;;27.80;74.80;;;;;;5016556;28;20160;-64
2023/08/16 10:18:52;;;;;;;3.90;3.10;;;27.90;74.30;;;;;;5014289;28;20037;-65
2023/08/16 10:21:18;;;;;;;4.53;3.10;;;27.90;73.80;;;;;;5016026;28;20491;-64
2023/08/16 10:23:44;;;;;;;3.50;3.20;;;28.00;73.30;;;;;;5013469;28;20034;-64
2023/08/16 10:26:13;;;;;;;4.70;3.20;;;28.10;73.50;;;;;;5017892;28;20271;-65
2023/08/16 10:28:43;;;;;;;3.88;3.40;;;28.10;72.50;;;;;;5015762;28;20156;-65
2023/08/16 10:31:10;;;;;;;4.70;3.50;;;28.20;72.30;;;;;;5012757;28;20052;-64
2023/08/16 10:33:43;;;;;;;3.40;3.00;;;28.30;72.10;;;;;;5016496;28;20037;-64
2023/08/16 10:36:10;;;;;;;3.72;3.20;;;28.30;71.80;;;;;;5015642;28;20746;-63
2023/08/16 10:38:41;;;;;;;3.30;3.10;;;28.40;72.00;;;;;;5016181;28;20060;-65
2023/08/16 10:41:14;;;;;;;3.97;3.20;;;28.40;71.60;;;;;;5016158;28;20033;-64
2023/08/16 10:43:48;;;;;;;4.88;3.08;;;28.50;70.90;;;;;;5015369;28;20117;-64
2023/08/16 10:46:36;;;;;;;3.03;2.70;;;28.50;71.00;;;;;;5016546;28;20026;-64
2023/08/16 10:49:08;;;;;;;2.92;2.63;;;28.60;71.20;;;;;;5013708;28;20069;-64
2023/08/16 10:51:52;;;;;;;3.92;2.65;;;28.60;70.60;;;;;;5013097;28;20034;-64
2023/08/16 10:54:19;;;;;;;3.05;2.60;;;28.70;69.30;;;;;;5013592;28;20583;-64
2023/08/16 10:56:48;;;;;;;2.97;2.70;;;28.80;70.20;;;;;;4986219;28;20450;-64
2023/08/16 10:59:14;;;;;;;2.92;2.28;;;28.80;69.30;;;;;;5014210;28;20413;-64
2023/08/16 11:02:08;;;;;;;4.60;2.78;;;28.80;69.60;;;;;;5014101;28;20091;-64
2023/08/16 11:04:38;;;;;;;4.43;2.50;;;28.90;66.90;;;;;;5012863;28;20040;-64
2023/08/16 11:07:09;;;;;;;2.92;2.42;;;28.90;68.40;;;;;;5011881;28;20437;-66
2023/08/16 11:09:36;;;;;;;3.25;2.47;;;29.00;67.40;;;;;;5013752;28;20038;-64
2023/08/16 11:12:03;;;;;;;3.83;2.17;;;29.00;68.00;;;;;;5012426;28;20173;-64
2023/08/16 11:14:29;;;;;;;2.97;2.40;;;29.10;67.30;;;;;;5014562;28;20041;-64
2023/08/16 11:16:55;;;;;;;3.10;2.40;;;29.10;67.40;;;;;;4998165;28;20452;-65
2023/08/16 11:19:22;;;;;;;4.10;2.65;;;29.20;67.30;;;;;;5015064;28;20088;-64
2023/08/16 11:21:47;;;;;;;2.75;2.30;;;29.20;66.60;;;;;;5014798;28;20509;-65
2023/08/16 11:24:13;;;;;;;5.07;2.50;;;29.20;66.60;;;;;;5013589;28;20033;-64
2023/08/16 11:26:39;;;;;;;6.13;2.60;;;29.30;66.10;;;;;;5015036;28;20052;-65
2023/08/16 11:29:06;;;;;;;3.80;2.53;;;29.30;66.00;;;;;;5014260;28;20025;-65
2023/08/16 11:31:34;;;;;;;3.22;2.55;;;29.40;66.00;;;;;;5013624;28;20531;-65
2023/08/16 11:33:59;;;;;;;2.88;2.65;;;29.40;66.20;;;;;;5014836;28;20678;-65
2023/08/16 11:36:25;;;;;;;4.15;2.85;;;29.50;65.90;;;;;;5014029;28;20029;-64
2023/08/16 11:38:51;;;;;;;3.05;2.65;;;29.50;64.80;;;;;;5013562;28;20523;-64
2023/08/16 11:41:19;;;;;;;3.47;2.55;;;29.50;65.30;;;;;;5015176;28;20065;-64
2023/08/16 11:43:45;;;;;;;2.83;2.53;;;29.50;64.70;;;;;;5013778;28;20358;-64
2023/08/16 11:46:10;;;;;;;2.80;2.40;;;29.60;63.70;;;;;;5012955;28;20029;-64
2023/08/16 11:48:36;;;;;;;2.67;2.47;;;29.60;64.20;;;;;;5011219;28;20038;-64
2023/08/16 11:51:02;;;;;;;3.78;2.60;;;29.60;64.50;;;;;;5013287;28;20528;-65
2023/08/16 11:53:36;;;;;;;2.60;2.40;;;29.60;64.50;;;;;;5015171;28;20055;-64
2023/08/16 11:56:09;;;;;;;5.60;2.40;;;29.70;62.80;;;;;;5015341;28;20417;-66
2023/08/16 11:58:48;;;;;;;2.40;2.20;;;29.80;62.70;;;;;;5014749;28;20045;-65
2023/08/16 12:01:15;;;;;;;2.65;2.45;;;29.70;62.80;;;;;;5013725;28;20041;-66
2023/08/16 12:03:43;;;;;;;3.38;2.28;;;29.80;63.70;;;;;;5014545;28;20045;-64
2023/08/16 12:06:09;;;;;;;2.30;2.08;;;29.80;63.70;;;;;;5016063;28;20057;-64
2023/08/16 12:08:35;;;;;;;2.75;2.25;;;29.80;63.60;;;;;;5015232;28;20041;-64
2023/08/16 12:11:01;;;;;;;2.72;2.53;;;29.80;64.00;;;;;;4995180;28;20037;-65
2023/08/16 12:13:27;;;;;;;2.40;2.00;;;29.90;63.80;;;;;;5012750;28;20026;-64
2023/08/16 12:15:53;;;;;;;2.20;2.03;;;29.90;63.20;;;;;;5011599;28;20448;-64
2023/08/16 12:18:20;;;;;;;2.80;2.22;;;30.00;63.20;;;;;;5015304;28;20100;-65
2023/08/16 12:20:52;;;;;;;2.22;2.03;;;30.10;62.00;;;;;;5012194;28;20188;-64
2023/08/16 12:23:19;;;;;;;2.35;2.20;;;30.10;62.20;;;;;;5015085;28;20026;-63
2023/08/16 12:25:45;;;;;;;3.15;2.30;;;30.20;62.50;;;;;;5012760;28;20476;-65
2023/08/16 12:28:11;;;;;;;2.25;2.00;;;30.20;62.20;;;;;;5013004;28;20050;-64
2023/08/16 12:30:37;;;;;;;2.75;1.98;;;30.20;61.60;;;;;;5013529;28;20048;-65
2023/08/16 12:33:04;;;;;;;2.53;2.10;;;30.30;61.60;;;;;;5013490;28;20034;-64
2023/08/16 12:35:30;;;;;;;2.25;2.10;;;30.30;61.60;;;;;;5015249;28;20065;-64
2023/08/16 12:37:56;;;;;;;2.47;2.00;;;30.30;60.80;;;;;;5011841;28;20522;-64
2023/08/16 12:40:26;;;;;;;1.98;1.88;;;30.40;60.00;;;;;;5013163;28;20088;-65
2023/08/16 12:42:52;;;;;;;3.35;2.25;;;30.40;59.70;;;;;;5015107;28;20049;-64
2023/08/16 12:45:17;;;;;;;1.98;1.88;;;30.40;59.90;;;;;;5015416;28;20037;-64